Weather Data

Pearl Creek Farm: 8878 N Farm Road 75, Walnut Grove MO 65770

<== Previous Day (Sunday 26 Jan 2014) | Next Day (Tuesday 28 Jan 2014) ==>

Summary Precipitation Data For Monday 27 January 2014

ElementValueUnits
Precipitation0"
Notes(none)
SourcePearl Creek Farm

Summary Temperature Data For Monday 27 January 2014

ElementValueUnits
High Temperature33 oF
Low Temperature14 oF
Average Temperature19 oF
High Humidity55 %
Low Humidity37 %
Average Humidity44 %
SourcePearl Creek Farm

Detail Temperature Data For Monday 27 January 2014

Date / TimeTemp (F)RH (%)Dew Pt (F)Report Date / TimeSource
2014-01-27 00:00:00 33 52 17.3 2014-02-09 14:43:36 Pearl Creek Farm
2014-01-27 00:30:00 31 55 16.8 2014-02-09 14:43:36 Pearl Creek Farm
2014-01-27 01:00:00 30 54 15.2 2014-02-09 14:43:36 Pearl Creek Farm
2014-01-27 01:30:00 28 55 13.8 2014-02-09 14:43:36 Pearl Creek Farm
2014-01-27 02:00:00 26 50 10.0 2014-02-09 14:43:36 Pearl Creek Farm
2014-01-27 02:30:00 25 49 8.4 2014-02-09 14:43:36 Pearl Creek Farm
2014-01-27 03:00:00 23 50 7.0 2014-02-09 14:43:36 Pearl Creek Farm
2014-01-27 03:30:00 22 47 4.9 2014-02-09 14:43:36 Pearl Creek Farm
2014-01-27 04:00:00 21 48 4.2 2014-02-09 14:43:36 Pearl Creek Farm
2014-01-27 04:30:00 20 49 4.0 2014-02-09 14:43:36 Pearl Creek Farm
2014-01-27 05:00:00 20 49 3.8 2014-02-09 14:43:36 Pearl Creek Farm
2014-01-27 05:30:00 19 50 3.5 2014-02-09 14:43:36 Pearl Creek Farm
2014-01-27 06:00:00 18 48 1.5 2014-02-09 14:43:36 Pearl Creek Farm
2014-01-27 06:30:00 17 47 0.3 2014-02-09 14:43:36 Pearl Creek Farm
2014-01-27 07:00:00 17 47 0.3 2014-02-09 14:43:36 Pearl Creek Farm
2014-01-27 07:30:00 16 46 -1.1 2014-02-09 14:43:36 Pearl Creek Farm
2014-01-27 08:00:00 15 42 -3.9 2014-02-09 14:43:36 Pearl Creek Farm
2014-01-27 08:30:00 15 43 -3.6 2014-02-09 14:43:36 Pearl Creek Farm
2014-01-27 09:00:00 15 44 -3.1 2014-02-09 14:43:36 Pearl Creek Farm
2014-01-27 09:30:00 15 45 -2.4 2014-02-09 14:43:36 Pearl Creek Farm
2014-01-27 10:00:00 16 45 -1.8 2014-02-09 14:43:36 Pearl Creek Farm
2014-01-27 10:30:00 15 41 -4.4 2014-02-09 14:43:36 Pearl Creek Farm
2014-01-27 11:00:00 15 43 -3.6 2014-02-09 14:43:36 Pearl Creek Farm
2014-01-27 11:30:00 16 38 -5.0 2014-02-09 14:43:36 Pearl Creek Farm
2014-01-27 12:00:00 18 37 -4.1 2014-02-09 14:43:36 Pearl Creek Farm
2014-01-27 12:30:00 18 37 -4.1 2014-02-09 14:43:36 Pearl Creek Farm
2014-01-27 13:00:00 18 37 -3.8 2014-02-09 14:43:36 Pearl Creek Farm
2014-01-27 13:30:00 18 38 -3.5 2014-02-09 14:43:36 Pearl Creek Farm
2014-01-27 14:00:00 19 38 -2.6 2014-02-09 14:43:36 Pearl Creek Farm
2014-01-27 14:30:00 19 38 -2.6 2014-02-09 14:43:36 Pearl Creek Farm
2014-01-27 15:00:00 19 38 -2.3 2014-02-09 14:43:36 Pearl Creek Farm
2014-01-27 15:30:00 19 37 -3.2 2014-02-09 14:43:36 Pearl Creek Farm
2014-01-27 16:00:00 18 38 -3.2 2014-02-09 14:43:36 Pearl Creek Farm
2014-01-27 16:30:00 18 39 -2.7 2014-02-09 14:43:36 Pearl Creek Farm
2014-01-27 17:00:00 17 40 -3.1 2014-02-09 14:43:36 Pearl Creek Farm
2014-01-27 17:30:00 17 41 -2.6 2014-02-09 14:43:36 Pearl Creek Farm
2014-01-27 18:00:00 17 41 -2.6 2014-02-09 14:43:36 Pearl Creek Farm
2014-01-27 18:30:00 17 43 -1.8 2014-02-09 14:43:36 Pearl Creek Farm
2014-01-27 19:00:00 16 44 -2.2 2014-02-09 14:43:36 Pearl Creek Farm
2014-01-27 19:30:00 16 44 -2.2 2014-02-09 14:43:36 Pearl Creek Farm
2014-01-27 20:00:00 16 44 -2.0 2014-02-09 14:43:36 Pearl Creek Farm
2014-01-27 20:30:00 16 45 -1.8 2014-02-09 14:43:36 Pearl Creek Farm
2014-01-27 21:00:00 16 45 -1.8 2014-02-09 14:43:36 Pearl Creek Farm
2014-01-27 21:30:00 15 45 -2.4 2014-02-09 14:43:36 Pearl Creek Farm
2014-01-27 22:00:00 15 46 -2.0 2014-02-09 14:43:36 Pearl Creek Farm
2014-01-27 22:30:00 14 48 -2.2 2014-02-09 14:43:36 Pearl Creek Farm
2014-01-27 23:00:00 14 47 -2.7 2014-02-09 14:43:36 Pearl Creek Farm
2014-01-27 23:30:00 14 47 -2.4 2014-02-09 14:43:36 Pearl Creek Farm

A total of 48 rows are displayed.